createdAt,value
2018-12-03T00:01:59.548Z,0.40
2018-12-03T00:04:57.121Z,0.60
2018-12-03T00:07:53.636Z,0.30
2018-12-03T00:10:50.160Z,0.40
2018-12-03T00:13:48.556Z,0.20
2018-12-03T00:16:45.076Z,0.40
2018-12-03T00:19:41.813Z,0.33
2018-12-03T00:22:38.108Z,0.50
2018-12-03T00:25:34.630Z,0.47
2018-12-03T00:28:31.168Z,0.47
2018-12-03T00:31:27.863Z,0.27
2018-12-03T00:34:25.228Z,0.30
2018-12-03T00:37:21.750Z,0.30
2018-12-03T00:40:18.266Z,0.20
2018-12-03T00:43:14.768Z,0.20
2018-12-03T00:46:11.932Z,0.10
2018-12-03T00:49:09.699Z,0.47
2018-12-03T00:52:06.002Z,0.30
2018-12-03T00:55:03.576Z,0.30
2018-12-03T00:58:00.712Z,0.00
2018-12-03T01:00:57.228Z,0.27
2018-12-03T01:03:54.788Z,0.20
2018-12-03T01:06:51.524Z,0.20
2018-12-03T01:09:48.666Z,0.30
2018-12-03T01:12:45.174Z,0.20
2018-12-03T01:15:42.523Z,0.30
2018-12-03T01:18:40.100Z,0.40
2018-12-03T01:21:36.408Z,0.23
2018-12-03T01:24:33.346Z,0.10
2018-12-03T01:27:30.485Z,0.23
2018-12-03T01:30:28.261Z,0.10
2018-12-03T01:33:25.837Z,0.23
2018-12-03T01:36:22.337Z,0.10
2018-12-03T01:39:18.654Z,0.13
2018-12-03T01:42:15.164Z,0.17
2018-12-03T01:45:11.474Z,0.10
2018-12-03T01:48:08.416Z,0.40
2018-12-03T01:51:04.716Z,0.17
2018-12-03T01:54:01.245Z,0.30
2018-12-03T01:56:57.766Z,0.30
2018-12-03T01:59:54.279Z,0.20
2018-12-03T02:02:50.591Z,0.13
2018-12-03T02:05:47.319Z,0.13
2018-12-03T02:08:43.834Z,0.00
2018-12-03T02:11:40.555Z,0.40
2018-12-03T02:14:37.918Z,0.17
2018-12-03T02:17:34.644Z,0.40
2018-12-03T02:20:31.162Z,0.20
2018-12-03T02:23:27.672Z,0.40
2018-12-03T02:26:25.028Z,0.30
2018-12-03T02:29:21.754Z,0.20
2018-12-03T02:32:18.065Z,0.40
2018-12-03T02:35:15.647Z,0.27
2018-12-03T02:38:12.153Z,0.30
2018-12-03T02:41:09.708Z,0.13
2018-12-03T02:44:06.016Z,0.10
2018-12-03T02:47:02.540Z,0.20
2018-12-03T02:49:59.266Z,0.10
2018-12-03T02:52:55.782Z,0.10
2018-12-03T02:55:52.082Z,0.17
2018-12-03T02:58:49.460Z,0.10
2018-12-03T03:01:46.186Z,0.20
2018-12-03T03:04:42.897Z,0.17
2018-12-03T03:07:40.313Z,0.10
2018-12-03T03:10:37.848Z,0.20
2018-12-03T03:13:34.139Z,0.17
2018-12-03T03:16:30.659Z,0.20
2018-12-03T03:19:27.166Z,0.17
2018-12-03T03:22:23.881Z,0.20
2018-12-03T03:25:21.455Z,0.27
2018-12-03T03:28:18.188Z,0.20
2018-12-03T03:31:15.413Z,0.40
2018-12-03T03:34:12.056Z,0.03
2018-12-03T03:37:09.415Z,0.30
2018-12-03T03:40:06.978Z,0.20
2018-12-03T03:43:03.488Z,0.10
2018-12-03T03:45:59.997Z,0.20
2018-12-03T03:48:56.737Z,0.43
2018-12-03T03:51:53.240Z,0.33
2018-12-03T03:54:49.556Z,0.37
2018-12-03T03:57:47.108Z,0.20
2018-12-03T04:00:44.466Z,0.07
2018-12-03T04:03:41.201Z,0.07
2018-12-03T04:06:37.728Z,0.10
2018-12-03T04:09:34.228Z,0.20
2018-12-03T04:12:30.551Z,0.10
2018-12-03T04:15:29.352Z,0.40
2018-12-03T04:18:25.882Z,0.30
2018-12-03T04:21:23.673Z,0.30
2018-12-03T04:24:20.801Z,0.30
2018-12-03T04:27:17.519Z,0.30
2018-12-03T04:30:14.659Z,0.10
2018-12-03T04:33:12.018Z,0.10
2018-12-03T04:36:09.368Z,0.10
2018-12-03T04:39:05.875Z,0.10
2018-12-03T04:42:02.203Z,0.20
2018-12-03T04:44:58.716Z,0.27
2018-12-03T04:47:55.985Z,0.23
2018-12-03T04:50:52.606Z,0.10
2018-12-03T04:53:49.952Z,0.20
2018-12-03T04:56:46.675Z,0.20
2018-12-03T04:59:43.187Z,0.10
2018-12-03T05:02:39.915Z,0.10
2018-12-03T05:05:37.278Z,0.20
2018-12-03T05:08:33.793Z,0.33
2018-12-03T05:11:31.159Z,0.23
2018-12-03T05:14:27.678Z,0.30
2018-12-03T05:17:24.404Z,0.20
2018-12-03T05:20:22.780Z,0.20
2018-12-03T05:23:20.087Z,0.30
2018-12-03T05:26:17.723Z,0.20
2018-12-03T05:29:14.020Z,0.23
2018-12-03T05:32:10.748Z,0.50
2018-12-03T05:35:08.752Z,0.27
2018-12-03T05:38:05.452Z,0.23
2018-12-03T05:41:01.755Z,0.20
2018-12-03T05:43:58.484Z,0.37
2018-12-03T05:46:55.560Z,0.40
2018-12-03T05:49:52.981Z,0.30
2018-12-03T05:52:49.725Z,0.30
2018-12-03T05:55:46.242Z,0.43
2018-12-03T05:58:42.946Z,0.70
2018-12-03T06:01:39.522Z,0.37
2018-12-03T06:04:36.206Z,0.43
2018-12-03T06:07:32.514Z,0.30
2018-12-03T06:10:31.352Z,0.23
2018-12-03T06:13:27.871Z,0.30
2018-12-03T06:16:24.283Z,0.30
2018-12-03T06:19:21.919Z,0.20
2018-12-03T06:22:19.079Z,0.40
2018-12-03T06:25:16.638Z,0.43
2018-12-03T06:28:14.015Z,0.37
2018-12-03T06:31:10.934Z,0.20
2018-12-03T06:34:07.259Z,0.20
2018-12-03T06:37:03.952Z,0.20
2018-12-03T06:40:00.483Z,0.40
2018-12-03T06:42:57.011Z,0.30
2018-12-03T06:45:53.316Z,0.27
2018-12-03T06:48:51.081Z,0.50
2018-12-03T06:51:47.623Z,0.40
2018-12-03T06:54:45.162Z,0.30
2018-12-03T06:57:42.519Z,0.50
2018-12-03T07:00:41.124Z,0.20
2018-12-03T07:03:38.481Z,0.43
2018-12-03T07:06:35.839Z,0.30
2018-12-03T07:09:32.143Z,0.50
2018-12-03T07:12:29.711Z,0.23
2018-12-03T07:15:27.058Z,0.20
2018-12-03T07:18:24.616Z,0.30
2018-12-03T07:21:21.139Z,0.20
2018-12-03T07:24:17.455Z,0.40
2018-12-03T07:27:14.184Z,0.10
2018-12-03T07:30:10.902Z,0.23
2018-12-03T07:33:07.211Z,0.30
2018-12-03T07:36:03.726Z,0.40
2018-12-03T07:39:01.083Z,0.40
2018-12-03T07:41:58.433Z,0.30
2018-12-03T07:44:54.989Z,0.20
2018-12-03T07:47:51.673Z,0.20
2018-12-03T07:50:49.049Z,0.30
2018-12-03T07:53:46.590Z,0.50
2018-12-03T07:56:43.950Z,0.30
2018-12-03T07:59:40.470Z,0.50
2018-12-03T08:02:36.994Z,0.40
2018-12-03T08:05:33.710Z,0.27
2018-12-03T08:08:31.058Z,0.30
2018-12-03T08:11:27.794Z,0.30
2018-12-03T08:14:25.154Z,0.30
2018-12-03T08:17:22.928Z,0.40
2018-12-03T08:20:20.270Z,0.30
2018-12-03T08:23:17.830Z,0.60
2018-12-03T08:26:14.154Z,0.30
2018-12-03T08:29:11.914Z,0.30
2018-12-03T08:32:09.080Z,0.33
2018-12-03T08:35:05.801Z,0.30
2018-12-03T08:38:03.461Z,0.40
2018-12-03T08:40:59.857Z,0.20
2018-12-03T08:43:56.382Z,0.50
2018-12-03T08:46:52.688Z,0.40
2018-12-03T08:49:49.454Z,0.30
2018-12-03T08:52:47.026Z,0.60
2018-12-03T08:55:43.304Z,0.30
2018-12-03T08:58:39.861Z,0.60
2018-12-03T09:01:38.032Z,0.30
2018-12-03T09:04:34.952Z,0.70
2018-12-03T09:07:31.457Z,0.57
2018-12-03T09:10:31.132Z,0.73
2018-12-03T09:13:31.595Z,0.50
2018-12-03T09:16:28.337Z,0.70
2018-12-03T09:19:25.467Z,0.53
2018-12-03T09:22:23.071Z,0.50
2018-12-03T09:25:22.468Z,0.60
2018-12-03T09:28:20.042Z,0.43
2018-12-03T09:31:18.230Z,0.50
2018-12-03T09:34:15.841Z,0.47
2018-12-03T09:37:12.316Z,0.40
2018-12-03T09:41:05.936Z,0.30
2018-12-03T09:44:04.595Z,0.70
2018-12-03T09:47:02.287Z,0.70
2018-12-03T09:49:59.843Z,0.70
2018-12-03T09:52:57.701Z,0.43
2018-12-03T09:55:55.477Z,0.60
2018-12-03T09:58:54.792Z,0.30
2018-12-03T10:01:53.145Z,0.40
2018-12-03T10:04:50.303Z,0.40
2018-12-03T10:07:48.239Z,0.63
2018-12-03T10:10:46.455Z,0.70
2018-12-03T10:13:45.360Z,0.50
2018-12-03T10:16:44.833Z,0.63
2018-12-03T10:19:43.703Z,0.43
2018-12-03T10:22:41.400Z,0.40
2018-12-03T10:25:40.607Z,0.40
2018-12-03T10:28:39.188Z,0.60
2018-12-03T10:31:36.464Z,0.70
2018-12-03T10:34:35.503Z,0.73
2018-12-03T10:37:33.799Z,0.73
2018-12-03T10:40:31.904Z,0.53
2018-12-03T10:43:29.651Z,0.60
2018-12-03T10:46:27.955Z,0.60
2018-12-03T10:49:26.558Z,0.60
2018-12-03T10:52:24.418Z,0.70
2018-12-03T10:55:24.408Z,0.90
2018-12-03T10:58:21.922Z,0.90
2018-12-03T11:01:25.876Z,0.47
2018-12-03T11:04:25.763Z,0.60
2018-12-03T11:07:25.469Z,0.70
2018-12-03T11:10:22.950Z,0.70
2018-12-03T11:13:20.615Z,0.63
2018-12-03T11:16:19.749Z,0.77
2018-12-03T11:19:17.757Z,0.53
2018-12-03T11:22:16.755Z,0.40
2018-12-03T11:25:14.636Z,0.50
2018-12-03T11:28:13.253Z,0.50
2018-12-03T11:31:10.912Z,0.60
2018-12-03T11:34:08.673Z,0.60
2018-12-03T11:37:07.410Z,0.80
2018-12-03T11:40:05.469Z,0.50
2018-12-03T11:43:03.055Z,0.47
2018-12-03T11:46:00.850Z,0.40
2018-12-03T11:48:59.621Z,0.50
2018-12-03T11:51:58.645Z,0.70
2018-12-03T11:54:56.344Z,0.50
2018-12-03T11:57:55.262Z,0.70
2018-12-03T12:00:53.482Z,0.67
2018-12-03T12:03:50.495Z,0.30
2018-12-03T12:06:47.837Z,0.63
2018-12-03T12:09:45.711Z,0.70
2018-12-03T12:12:44.010Z,0.63
2018-12-03T12:15:42.495Z,0.40
2018-12-03T12:18:41.452Z,0.53
2018-12-03T12:21:40.867Z,0.23
2018-12-03T12:24:38.103Z,0.57
2018-12-03T12:27:35.938Z,0.37
2018-12-03T12:30:33.587Z,0.50
2018-12-03T12:33:32.279Z,0.50
2018-12-03T12:36:31.170Z,0.40
2018-12-03T12:39:28.475Z,0.50
2018-12-03T12:42:31.694Z,0.53
2018-12-03T12:45:27.724Z,0.50
2018-12-03T12:48:25.523Z,0.30
2018-12-03T12:51:22.933Z,0.43
2018-12-03T12:54:20.208Z,0.30
2018-12-03T12:57:18.198Z,0.70
2018-12-03T13:00:16.285Z,0.80
2018-12-03T13:03:14.273Z,0.40
2018-12-03T13:06:14.216Z,0.40
2018-12-03T13:09:12.842Z,0.60
2018-12-03T13:12:10.382Z,0.70
2018-12-03T13:15:07.736Z,0.50
2018-12-03T13:18:05.315Z,0.30
2018-12-03T13:21:03.907Z,0.40
2018-12-03T13:24:02.752Z,0.57
2018-12-03T13:27:01.615Z,0.60
2018-12-03T13:30:00.483Z,0.70
2018-12-03T13:32:59.196Z,0.50
2018-12-03T13:35:57.246Z,0.47
2018-12-03T13:38:55.771Z,0.67
2018-12-03T13:41:53.794Z,0.43
2018-12-03T13:44:50.341Z,0.67
2018-12-03T13:47:48.239Z,0.60
2018-12-03T13:50:46.953Z,0.30
2018-12-03T13:53:44.841Z,0.43
2018-12-03T13:56:41.976Z,0.50
2018-12-03T13:59:39.814Z,0.50
2018-12-03T14:02:38.793Z,0.20
2018-12-03T14:05:38.223Z,0.40
2018-12-03T14:08:36.536Z,0.50
2018-12-03T14:11:34.921Z,0.60
2018-12-03T14:14:33.651Z,0.60
2018-12-03T14:17:32.853Z,0.50
2018-12-03T14:20:30.234Z,0.40
2018-12-03T14:23:27.978Z,0.77
2018-12-03T14:26:26.487Z,0.50
2018-12-03T14:29:25.929Z,0.50
2018-12-03T14:32:24.328Z,0.53
2018-12-03T14:35:23.067Z,0.80
2018-12-03T14:38:20.516Z,0.80
2018-12-03T14:41:18.851Z,0.40
2018-12-03T14:44:17.802Z,0.60
2018-12-03T14:49:55.923Z,0.50
2018-12-03T14:52:54.031Z,0.57
2018-12-03T14:55:52.512Z,0.70
2018-12-03T14:58:50.381Z,0.57
2018-12-03T15:01:47.947Z,0.40
2018-12-03T15:04:46.448Z,0.70
2018-12-03T15:07:44.311Z,0.40
2018-12-03T15:10:41.817Z,0.90
2018-12-03T15:13:40.136Z,0.70
2018-12-03T15:16:40.257Z,0.80
2018-12-03T15:19:40.219Z,0.33
2018-12-03T15:22:38.278Z,0.73
2018-12-03T15:25:37.227Z,0.60
2018-12-03T15:28:35.185Z,0.70
2018-12-03T15:31:34.331Z,0.67
2018-12-03T15:34:33.654Z,0.40
2018-12-03T15:37:31.638Z,0.70
2018-12-03T15:40:30.872Z,0.60
2018-12-03T15:43:29.185Z,0.90
2018-12-03T15:46:26.251Z,0.50
2018-12-03T15:49:23.821Z,0.40
2018-12-03T15:52:21.117Z,0.40
2018-12-03T15:55:18.417Z,0.50
2018-12-03T15:58:16.794Z,0.60
2018-12-03T16:01:14.552Z,0.67
2018-12-03T16:04:13.999Z,0.40
2018-12-03T16:07:11.057Z,0.60
2018-12-03T16:10:08.210Z,0.60
2018-12-03T16:13:07.745Z,0.50
2018-12-03T16:16:05.381Z,0.40
2018-12-03T16:19:02.963Z,0.90
2018-12-03T16:22:00.337Z,0.60
2018-12-03T16:24:58.695Z,0.40
2018-12-03T16:27:56.951Z,1.00
2018-12-03T16:30:54.717Z,1.00
2018-12-03T16:33:52.238Z,0.80
2018-12-03T16:36:50.432Z,0.87
2018-12-03T16:39:47.894Z,0.80
2018-12-03T16:42:45.252Z,0.50
2018-12-03T16:45:43.441Z,0.63
2018-12-03T16:48:41.532Z,0.60
2018-12-03T16:51:39.483Z,0.50
2018-12-03T16:54:37.362Z,0.87
2018-12-03T16:57:36.482Z,0.60
2018-12-03T17:00:34.183Z,0.60
2018-12-03T17:03:33.071Z,0.80
2018-12-03T17:06:30.269Z,0.60
2018-12-03T17:09:27.683Z,0.50
2018-12-03T17:12:24.987Z,0.50
2018-12-03T17:15:22.309Z,0.60
2018-12-03T17:18:20.467Z,0.50
2018-12-03T17:21:17.613Z,0.53
2018-12-03T17:24:16.135Z,0.30
2018-12-03T17:27:13.693Z,0.70
2018-12-03T17:30:12.731Z,0.67
2018-12-03T17:33:10.143Z,0.60
2018-12-03T17:36:07.514Z,0.47
2018-12-03T17:39:05.081Z,0.60
2018-12-03T17:42:03.179Z,0.30
2018-12-03T17:45:00.498Z,0.63
2018-12-03T17:47:58.185Z,0.60
2018-12-03T17:50:57.226Z,0.63
2018-12-03T17:53:54.877Z,0.70
2018-12-03T17:56:53.377Z,0.60
2018-12-03T17:59:52.023Z,0.60
2018-12-03T18:02:49.821Z,0.50
2018-12-03T18:05:46.689Z,0.40
2018-12-03T18:08:44.806Z,0.83
2018-12-03T18:11:42.024Z,0.50
2018-12-03T18:14:40.423Z,0.67
2018-12-03T18:17:39.987Z,0.67
2018-12-03T18:20:37.427Z,0.80
2018-12-03T18:23:37.290Z,0.73
2018-12-03T18:26:34.660Z,0.80
2018-12-03T18:29:32.638Z,0.60
2018-12-03T18:32:29.769Z,0.70
2018-12-03T18:35:28.168Z,1.00
2018-12-03T18:38:26.781Z,0.80
2018-12-03T18:41:25.801Z,0.73
2018-12-03T18:44:22.887Z,0.93
2018-12-03T18:47:21.442Z,0.90
2018-12-03T18:50:21.412Z,0.87
2018-12-03T18:55:56.766Z,0.93
2018-12-03T18:58:54.504Z,0.80
2018-12-03T19:01:52.167Z,0.97
2018-12-03T19:04:52.019Z,0.87
2018-12-03T19:07:50.405Z,1.00
2018-12-03T19:10:48.139Z,0.90
2018-12-03T19:13:46.578Z,1.10
2018-12-03T19:16:43.636Z,1.00
2018-12-03T19:19:42.210Z,0.80
2018-12-03T19:22:39.981Z,0.90
2018-12-03T19:25:37.597Z,0.90
2018-12-03T19:28:34.721Z,1.03
2018-12-03T19:31:32.706Z,0.70
2018-12-03T19:34:31.814Z,0.77
2018-12-03T19:37:31.062Z,0.80
2018-12-03T19:40:29.584Z,0.73
2018-12-03T19:43:28.125Z,0.73
2018-12-03T19:46:25.934Z,1.10
2018-12-03T19:49:24.104Z,1.00
2018-12-03T19:52:21.248Z,1.10
2018-12-03T19:55:18.812Z,1.13
2018-12-03T19:58:17.246Z,0.97
2018-12-03T20:01:16.160Z,1.00
2018-12-03T20:04:13.461Z,0.87
2018-12-03T20:07:11.037Z,0.83
2018-12-03T20:10:08.418Z,0.97
2018-12-03T20:13:06.498Z,0.90
2018-12-03T20:16:03.704Z,0.90
2018-12-03T20:19:00.926Z,1.13
2018-12-03T20:21:58.874Z,0.93
2018-12-03T20:24:56.156Z,1.27
2018-12-03T20:27:54.300Z,1.10
2018-12-03T20:30:52.735Z,1.37
2018-12-03T20:33:50.989Z,0.93
2018-12-03T20:36:48.866Z,1.13
2018-12-03T20:39:48.447Z,1.13
2018-12-03T20:42:46.994Z,0.90
2018-12-03T20:45:46.986Z,1.23
2018-12-03T20:48:44.886Z,1.27
2018-12-03T20:51:41.538Z,1.10
2018-12-03T20:54:40.113Z,1.20
2018-12-03T20:57:37.058Z,1.03
2018-12-03T21:00:36.279Z,0.80
2018-12-03T21:03:34.585Z,1.00
2018-12-03T21:06:32.554Z,1.00
2018-12-03T21:09:29.814Z,1.13
2018-12-03T21:12:27.260Z,1.13
2018-12-03T21:15:25.988Z,0.93
2018-12-03T21:18:24.562Z,1.00
2018-12-03T21:21:23.001Z,1.37
2018-12-03T21:24:20.781Z,1.33
2018-12-03T21:27:19.834Z,1.27
2018-12-03T21:30:17.329Z,0.83
2018-12-03T21:33:14.792Z,1.10
2018-12-03T21:36:14.561Z,1.10
2018-12-03T21:39:13.681Z,1.00
2018-12-03T21:42:12.515Z,1.00
2018-12-03T21:45:10.695Z,0.97
2018-12-03T21:48:09.711Z,0.90
2018-12-03T21:51:07.273Z,0.77
2018-12-03T21:54:04.297Z,1.10
2018-12-03T21:57:02.699Z,0.83
2018-12-03T22:00:00.327Z,0.83
2018-12-03T22:02:59.623Z,1.07
2018-12-03T22:05:57.059Z,0.80
2018-12-03T22:08:54.641Z,1.10
2018-12-03T22:11:52.203Z,0.90
2018-12-03T22:14:51.339Z,1.00
2018-12-03T22:17:48.646Z,0.80
2018-12-03T22:20:47.207Z,0.83
2018-12-03T22:23:46.108Z,0.57
2018-12-03T22:26:45.009Z,0.93
2018-12-03T22:29:42.372Z,0.60
2018-12-03T22:32:39.857Z,0.70
2018-12-03T22:35:39.160Z,0.83
2018-12-03T22:38:36.723Z,0.60
2018-12-03T22:41:35.960Z,0.80
2018-12-03T22:44:34.145Z,0.90
2018-12-03T22:47:31.437Z,0.57
2018-12-03T22:50:29.709Z,1.00
2018-12-03T22:53:28.207Z,0.90
2018-12-03T22:56:25.872Z,0.70
2018-12-03T22:59:23.631Z,0.90
2018-12-03T23:02:21.735Z,0.70
2018-12-03T23:05:19.392Z,0.77
2018-12-03T23:08:16.527Z,0.80
2018-12-03T23:11:15.052Z,0.80
2018-12-03T23:14:12.488Z,0.93
2018-12-03T23:17:10.386Z,0.50
2018-12-03T23:20:07.548Z,0.60
2018-12-03T23:23:05.394Z,0.53
2018-12-03T23:26:03.295Z,1.00
2018-12-03T23:29:01.068Z,0.70
2018-12-03T23:31:58.400Z,0.70
2018-12-03T23:34:55.369Z,0.70
2018-12-03T23:37:53.634Z,0.60
2018-12-03T23:40:50.970Z,0.80
2018-12-03T23:43:48.965Z,1.00
2018-12-03T23:46:46.176Z,0.77
2018-12-03T23:49:43.285Z,0.90
2018-12-03T23:52:41.505Z,0.90
2018-12-03T23:55:40.447Z,1.10
2018-12-03T23:58:37.341Z,0.73
